sensor_id;sensor_type;location;lat;lon;timestamp;temperature;humidity
23495;DHT22;26107;50.832;2.950;2023-07-20T00:12:55;18.00;99.90
23495;DHT22;26107;50.832;2.950;2023-07-20T00:28:01;17.80;99.90
23495;DHT22;26107;50.832;2.950;2023-07-20T00:43:02;17.60;99.90
23495;DHT22;26107;50.832;2.950;2023-07-20T00:58:05;17.80;99.90
23495;DHT22;26107;50.832;2.950;2023-07-20T01:13:09;18.10;99.90
23495;DHT22;26107;50.832;2.950;2023-07-20T01:43:52;18.00;99.90
23495;DHT22;26107;50.832;2.950;2023-07-20T01:58:53;18.10;99.90
23495;DHT22;26107;50.832;2.950;2023-07-20T02:13:53;17.70;99.90
23495;DHT22;26107;50.832;2.950;2023-07-20T02:28:54;18.00;99.90
23495;DHT22;26107;50.832;2.950;2023-07-20T02:43:54;18.30;99.90
23495;DHT22;26107;50.832;2.950;2023-07-20T02:58:57;18.20;99.90
23495;DHT22;26107;50.832;2.950;2023-07-20T03:13:57;18.30;99.90
23495;DHT22;26107;50.832;2.950;2023-07-20T03:28:58;18.20;99.90
23495;DHT22;26107;50.832;2.950;2023-07-20T03:43:58;18.20;99.90
23495;DHT22;26107;50.832;2.950;2023-07-20T03:59:00;17.90;99.90
23495;DHT22;26107;50.832;2.950;2023-07-20T04:14:03;17.90;99.90
23495;DHT22;26107;50.832;2.950;2023-07-20T04:29:04;17.90;99.90
23495;DHT22;26107;50.832;2.950;2023-07-20T04:44:04;17.90;99.90
23495;DHT22;26107;50.832;2.950;2023-07-20T04:59:05;17.90;99.90
23495;DHT22;26107;50.832;2.950;2023-07-20T05:14:06;17.70;99.90
23495;DHT22;26107;50.832;2.950;2023-07-20T05:29:08;18.00;99.90
23495;DHT22;26107;50.832;2.950;2023-07-20T05:44:09;18.10;99.90
23495;DHT22;26107;50.832;2.950;2023-07-20T05:59:09;17.90;99.90
23495;DHT22;26107;50.832;2.950;2023-07-20T06:14:10;17.00;99.90
23495;DHT22;26107;50.832;2.950;2023-07-20T06:29:11;17.30;99.90
23495;DHT22;26107;50.832;2.950;2023-07-20T06:44:14;18.00;99.90
23495;DHT22;26107;50.832;2.950;2023-07-20T06:59:14;18.20;99.90
23495;DHT22;26107;50.832;2.950;2023-07-20T07:14:15;18.70;99.90
23495;DHT22;26107;50.832;2.950;2023-07-20T07:29:18;19.30;99.90
23495;DHT22;26107;50.832;2.950;2023-07-20T07:44:18;19.20;99.90
23495;DHT22;26107;50.832;2.950;2023-07-20T07:59:21;19.20;99.90
23495;DHT22;26107;50.832;2.950;2023-07-20T08:14:23;19.70;99.90
23495;DHT22;26107;50.832;2.950;2023-07-20T08:29:24;19.70;99.90
23495;DHT22;26107;50.832;2.950;2023-07-20T08:44:25;19.60;99.90
23495;DHT22;26107;50.832;2.950;2023-07-20T08:59:31;19.30;99.90
23495;DHT22;26107;50.832;2.950;2023-07-20T09:14:37;19.70;99.90
23495;DHT22;26107;50.832;2.950;2023-07-20T09:29:48;19.70;99.90
23495;DHT22;26107;50.832;2.950;2023-07-20T09:44:50;20.30;99.90
23495;DHT22;26107;50.832;2.950;2023-07-20T09:59:52;20.40;99.90
23495;DHT22;26107;50.832;2.950;2023-07-20T10:15:27;20.70;99.90
23495;DHT22;26107;50.832;2.950;2023-07-20T10:30:28;20.90;99.90
23495;DHT22;26107;50.832;2.950;2023-07-20T11:00:54;21.20;99.90
23495;DHT22;26107;50.832;2.950;2023-07-20T11:30:57;22.20;99.90
23495;DHT22;26107;50.832;2.950;2023-07-20T11:45:59;22.30;99.90
23495;DHT22;26107;50.832;2.950;2023-07-20T12:01:01;23.30;99.90
23495;DHT22;26107;50.832;2.950;2023-07-20T12:16:16;22.60;99.90
23495;DHT22;26107;50.832;2.950;2023-07-20T12:31:19;22.10;99.90
23495;DHT22;26107;50.832;2.950;2023-07-20T12:46:24;20.50;99.90
23495;DHT22;26107;50.832;2.950;2023-07-20T13:01:25;19.10;99.90
23495;DHT22;26107;50.832;2.950;2023-07-20T13:16:30;18.20;99.90
23495;DHT22;26107;50.832;2.950;2023-07-20T13:31:34;17.80;99.90
23495;DHT22;26107;50.832;2.950;2023-07-20T13:46:34;18.00;99.90
23495;DHT22;26107;50.832;2.950;2023-07-20T14:01:35;19.30;99.90
23495;DHT22;26107;50.832;2.950;2023-07-20T14:16:38;20.40;99.90
23495;DHT22;26107;50.832;2.950;2023-07-20T14:31:39;21.20;99.90
23495;DHT22;26107;50.832;2.950;2023-07-20T14:46:39;22.10;99.90
23495;DHT22;26107;50.832;2.950;2023-07-20T15:01:40;22.60;99.90
23495;DHT22;26107;50.832;2.950;2023-07-20T15:16:41;22.90;99.90
23495;DHT22;26107;50.832;2.950;2023-07-20T15:31:43;23.40;99.90
23495;DHT22;26107;50.832;2.950;2023-07-20T15:46:48;23.90;99.90
23495;DHT22;26107;50.832;2.950;2023-07-20T16:01:51;23.20;99.90
23495;DHT22;26107;50.832;2.950;2023-07-20T16:16:54;24.30;99.90
23495;DHT22;26107;50.832;2.950;2023-07-20T16:31:57;26.40;99.90
23495;DHT22;26107;50.832;2.950;2023-07-20T16:46:58;30.70;98.70
23495;DHT22;26107;50.832;2.950;2023-07-20T17:02:01;32.90;91.80
23495;DHT22;26107;50.832;2.950;2023-07-20T17:17:04;30.90;90.20
23495;DHT22;26107;50.832;2.950;2023-07-20T17:32:08;29.30;90.40
23495;DHT22;26107;50.832;2.950;2023-07-20T17:47:13;32.70;87.60
23495;DHT22;26107;50.832;2.950;2023-07-20T18:02:14;35.50;77.60
23495;DHT22;26107;50.832;2.950;2023-07-20T18:17:15;32.80;80.20
23495;DHT22;26107;50.832;2.950;2023-07-20T18:32:15;31.70;83.40
23495;DHT22;26107;50.832;2.950;2023-07-20T18:47:16;33.50;80.90
23495;DHT22;26107;50.832;2.950;2023-07-20T19:02:17;26.80;94.20
23495;DHT22;26107;50.832;2.950;2023-07-20T19:17:17;23.80;99.90
23495;DHT22;26107;50.832;2.950;2023-07-20T19:32:24;23.70;99.90
23495;DHT22;26107;50.832;2.950;2023-07-20T19:47:25;21.90;99.90
23495;DHT22;26107;50.832;2.950;2023-07-20T20:02:25;21.00;99.90
23495;DHT22;26107;50.832;2.950;2023-07-20T20:17:26;21.90;99.90
23495;DHT22;26107;50.832;2.950;2023-07-20T20:32:27;22.00;99.90
23495;DHT22;26107;50.832;2.950;2023-07-20T20:47:28;21.60;99.90
23495;DHT22;26107;50.832;2.950;2023-07-20T21:02:29;21.30;99.90
23495;DHT22;26107;50.832;2.950;2023-07-20T21:17:34;21.10;99.90
23495;DHT22;26107;50.832;2.950;2023-07-20T21:32:35;20.80;99.90
23495;DHT22;26107;50.832;2.950;2023-07-20T21:47:36;20.20;99.90
23495;DHT22;26107;50.832;2.950;2023-07-20T22:02:37;20.30;99.90
23495;DHT22;26107;50.832;2.950;2023-07-20T22:17:37;19.80;99.90
23495;DHT22;26107;50.832;2.950;2023-07-20T22:32:38;20.00;99.90
23495;DHT22;26107;50.832;2.950;2023-07-20T22:47:41;19.10;99.90
23495;DHT22;26107;50.832;2.950;2023-07-20T23:02:42;18.70;99.90
23495;DHT22;26107;50.832;2.950;2023-07-20T23:17:44;19.10;99.90
23495;DHT22;26107;50.832;2.950;2023-07-20T23:32:48;19.20;99.90
23495;DHT22;26107;50.832;2.950;2023-07-20T23:47:52;19.30;99.90
